Pineora, Georgia
Current Conditions -  °F | °C
As of 3:53 PM on Wednesday 17 Dec 2014 (Local Time) from KSAV Reporting Station
Broken Clouds Broken Clouds  
Wind Chill: 65°   Ceiling: 25000
Heat Index: 65°   Visibility: 10mi
Dew Point: 40°   Wind: 8mph
Humidity: 40%   Direction: 260°W
Pressure: 30.09"   Gusts: NA
Location:  32.3167°N, 81.3986°W
Report Text: KSAV 172053Z 26007KT 10SM BKN250 18/04 A3009 RMK AO2 SLP189 T01830044 55010
Loading
Personal Weather Stations






























Interactive Weather Map New forecast layout! Learn more

10-Day Weather Forecast

Advertisements
Track Severe Weather on mobile